createdAt,value
2018-12-01T00:01:18.306Z,5.17
2018-12-01T00:03:51.770Z,5.62
2018-12-01T00:06:25.336Z,5.25
2018-12-01T00:08:59.344Z,4.70
2018-12-01T00:11:32.691Z,5.50
2018-12-01T00:14:07.379Z,4.92
2018-12-01T00:16:40.724Z,6.65
2018-12-01T00:19:14.302Z,5.62
2018-12-01T00:21:47.997Z,5.45
2018-12-01T00:24:21.501Z,5.83
2018-12-01T00:26:55.019Z,5.22
2018-12-01T00:29:28.539Z,4.95
2018-12-01T00:32:01.898Z,5.37
2018-12-01T00:34:35.720Z,5.22
2018-12-01T00:37:08.289Z,5.12
2018-12-01T00:39:41.304Z,5.33
2018-12-01T00:42:14.799Z,5.30
2018-12-01T00:44:48.348Z,4.75
2018-12-01T00:47:21.731Z,5.08
2018-12-01T00:49:55.373Z,4.83
2018-12-01T00:52:28.760Z,5.20
2018-12-01T00:55:01.304Z,5.60
2018-12-01T00:57:33.856Z,5.30
2018-12-01T01:02:41.686Z,5.25
2018-12-01T01:05:15.302Z,5.10
2018-12-01T01:07:49.356Z,5.25
2018-12-01T01:14:49.666Z,5.12
2018-12-01T01:17:23.253Z,5.47
2018-12-01T01:19:56.743Z,4.58
2018-12-01T01:22:30.266Z,5.25
2018-12-01T01:25:03.714Z,5.30
2018-12-01T01:27:38.294Z,5.58
2018-12-01T01:30:18.308Z,5.85
2018-12-01T01:32:52.674Z,5.47
2018-12-01T01:35:26.117Z,5.08
2018-12-01T01:37:59.494Z,5.20
2018-12-01T01:40:32.985Z,5.33
2018-12-01T01:43:06.502Z,5.15
2018-12-01T01:45:40.355Z,5.08
2018-12-01T01:48:13.637Z,5.10
2018-12-01T01:50:47.300Z,5.60
2018-12-01T01:53:20.564Z,4.97
2018-12-01T01:55:53.869Z,5.05
2018-12-01T02:00:59.689Z,5.08
2018-12-01T02:03:33.330Z,4.70
2018-12-01T02:06:07.301Z,4.72
2018-12-01T02:08:40.873Z,4.97
2018-12-01T02:13:47.398Z,5.15
2018-12-01T02:16:21.570Z,5.08
2018-12-01T02:18:55.485Z,4.95
2018-12-01T02:21:30.767Z,4.90
2018-12-01T02:24:04.270Z,6.92
2018-12-01T02:26:37.829Z,4.85
2018-12-01T02:31:30.887Z,4.47
2018-12-01T02:36:36.298Z,4.75
2018-12-01T02:41:52.523Z,5.00
2018-12-01T02:45:46.389Z,5.08
2018-12-01T02:48:19.966Z,4.80
2018-12-01T02:50:53.496Z,5.08
2018-12-01T02:53:27.012Z,5.15
2018-12-01T02:56:00.519Z,4.83
2018-12-01T02:58:34.325Z,5.05
2018-12-01T03:01:08.068Z,4.47
2018-12-01T03:03:41.878Z,4.87
2018-12-01T03:08:48.058Z,4.47
2018-12-01T03:11:21.318Z,4.58
2018-12-01T03:13:54.670Z,4.72
2018-12-01T03:16:28.304Z,4.58
2018-12-01T03:19:01.702Z,4.50
2018-12-01T03:21:35.811Z,4.60
2018-12-01T03:24:09.065Z,4.90
2018-12-01T03:26:41.721Z,4.70
2018-12-01T03:29:14.582Z,4.85
2018-12-01T03:31:47.417Z,4.70
2018-12-01T03:34:21.544Z,5.05
2018-12-01T03:36:55.344Z,4.65
2018-12-01T03:39:29.540Z,4.80
2018-12-01T03:42:03.353Z,4.83
2018-12-01T03:44:37.304Z,5.05
2018-12-01T03:47:11.313Z,4.72
2018-12-01T03:49:44.734Z,4.80
2018-12-01T03:52:18.544Z,4.45
2018-12-01T03:54:51.815Z,5.67
2018-12-01T03:57:25.568Z,5.05
2018-12-01T03:59:59.684Z,5.10
2018-12-01T04:02:33.412Z,4.70
2018-12-01T04:05:07.402Z,4.65
2018-12-01T04:07:41.738Z,4.95
2018-12-01T04:10:15.552Z,5.17
2018-12-01T04:12:49.560Z,4.65
2018-12-01T04:15:23.685Z,5.15
2018-12-01T04:17:57.759Z,4.95
2018-12-01T04:20:31.552Z,4.62
2018-12-01T04:23:05.329Z,4.50
2018-12-01T04:25:39.592Z,5.12
2018-12-01T04:28:13.577Z,5.05
2018-12-01T04:30:47.330Z,4.95
2018-12-01T04:33:21.313Z,5.17
2018-12-01T04:35:55.081Z,5.62
2018-12-01T04:38:28.807Z,4.87
2018-12-01T04:41:02.571Z,4.12
2018-12-01T04:43:36.077Z,5.60
2018-12-01T04:46:10.155Z,4.58
2018-12-01T04:48:44.560Z,4.67
2018-12-01T04:51:18.641Z,4.30
2018-12-01T04:53:52.408Z,4.60
2018-12-01T04:56:26.394Z,4.53
2018-12-01T04:59:00.290Z,4.22
2018-12-01T05:01:34.270Z,4.33
2018-12-01T05:04:08.310Z,4.50
2018-12-01T05:06:42.380Z,4.65
2018-12-01T05:09:16.270Z,3.95
2018-12-01T05:11:50.307Z,4.40
2018-12-01T05:14:23.840Z,4.87
2018-12-01T05:16:57.603Z,5.00
2018-12-01T05:19:31.321Z,4.55
2018-12-01T05:22:05.832Z,5.55
2018-12-01T05:24:39.790Z,5.10
2018-12-01T05:27:13.580Z,4.50
2018-12-01T05:29:47.552Z,4.70
2018-12-01T05:32:21.303Z,4.45
2018-12-01T05:34:55.068Z,4.35
2018-12-01T05:37:28.770Z,4.70
2018-12-01T05:40:02.898Z,4.58
2018-12-01T05:45:17.065Z,4.37
2018-12-01T05:47:51.379Z,4.40
2018-12-01T05:50:28.668Z,5.03
2018-12-01T05:53:03.394Z,4.03
2018-12-01T05:55:37.405Z,4.37
2018-12-01T05:58:11.308Z,4.40
2018-12-01T06:00:45.303Z,4.25
2018-12-01T06:03:19.064Z,3.83
2018-12-01T06:05:52.746Z,3.75
2018-12-01T06:08:26.625Z,3.10
2018-12-01T06:11:00.395Z,3.08
2018-12-01T06:13:34.139Z,2.80
2018-12-01T06:16:08.307Z,2.90
2018-12-01T06:18:41.857Z,2.58
2018-12-01T06:23:53.154Z,2.65
2018-12-01T06:26:36.594Z,2.67
2018-12-01T06:29:10.348Z,3.02
2018-12-01T06:31:44.543Z,5.30
2018-12-01T06:34:18.318Z,2.70
2018-12-01T06:36:52.280Z,2.40
2018-12-01T06:39:26.313Z,2.70
2018-12-01T06:42:00.298Z,3.67
2018-12-01T06:44:34.857Z,2.95
2018-12-01T06:49:42.736Z,2.72
2018-12-01T06:52:16.860Z,2.40
2018-12-01T06:57:23.396Z,3.55
2018-12-01T07:00:26.312Z,2.75
2018-12-01T07:03:00.714Z,2.87
2018-12-01T07:05:34.147Z,4.42
2018-12-01T07:08:07.529Z,3.30
2018-12-01T07:10:40.899Z,3.40
2018-12-01T07:15:46.973Z,3.35
2018-12-01T07:19:21.527Z,3.75
2018-12-01T07:21:54.902Z,4.55
2018-12-01T07:27:00.712Z,3.50
2018-12-01T07:29:34.307Z,4.30
2018-12-01T07:32:08.069Z,5.40
2018-12-01T07:34:41.540Z,3.87
2018-12-01T07:37:15.039Z,5.92
2018-12-01T07:39:50.637Z,3.50
2018-12-01T07:42:24.274Z,4.20
2018-12-01T07:44:57.696Z,4.00
2018-12-01T07:47:30.762Z,3.67
2018-12-01T07:50:04.319Z,3.50
2018-12-01T07:52:37.842Z,3.90
2018-12-01T07:55:11.719Z,3.50
2018-12-01T07:57:45.553Z,4.10
2018-12-01T08:00:20.075Z,6.80
2018-12-01T08:02:54.572Z,6.03
2018-12-01T08:05:27.890Z,4.60
2018-12-01T08:10:33.731Z,5.62
2018-12-01T08:13:07.675Z,3.72
2018-12-01T08:15:41.315Z,4.28
2018-12-01T08:18:14.714Z,3.45
2018-12-01T08:20:48.391Z,7.45
2018-12-01T08:23:21.866Z,5.22
2018-12-01T08:28:28.703Z,3.80
2018-12-01T08:31:02.321Z,5.12
2018-12-01T08:33:35.684Z,4.35
2018-12-01T08:36:09.310Z,6.17
2018-12-01T08:38:42.745Z,4.58
2018-12-01T08:41:16.279Z,3.92
2018-12-01T08:43:50.717Z,4.40
2018-12-01T08:46:24.316Z,4.03
2018-12-01T08:48:57.688Z,4.95
2018-12-01T08:51:31.278Z,6.80
2018-12-01T08:54:04.714Z,6.22
2018-12-01T08:56:38.324Z,5.92
2018-12-01T08:59:12.082Z,4.22
2018-12-01T09:01:45.655Z,5.12
2018-12-01T09:04:19.295Z,5.70
2018-12-01T09:06:52.712Z,4.05
2018-12-01T09:09:26.307Z,6.17
2018-12-01T09:12:00.286Z,4.33
2018-12-01T09:14:33.722Z,3.67
2018-12-01T09:17:07.761Z,4.70
2018-12-01T09:19:41.352Z,3.50
2018-12-01T09:22:14.742Z,3.33
2018-12-01T09:24:47.379Z,4.50
2018-12-01T09:27:22.441Z,3.95
2018-12-01T09:29:54.690Z,3.62
2018-12-01T09:32:28.318Z,4.85
2018-12-01T09:35:01.712Z,5.35
2018-12-01T09:37:34.531Z,5.67
2018-12-01T09:40:09.836Z,4.10
2018-12-01T09:42:43.393Z,3.45
2018-12-01T09:45:22.070Z,3.20
2018-12-01T09:47:57.812Z,5.08
2018-12-01T09:50:31.375Z,3.75
2018-12-01T09:53:05.031Z,3.30
2018-12-01T09:55:38.678Z,3.85
2018-12-01T09:58:12.144Z,4.15
2018-12-01T10:00:45.646Z,7.08
2018-12-01T10:03:19.338Z,4.10
2018-12-01T10:05:52.728Z,6.10
2018-12-01T10:08:26.482Z,4.28
2018-12-01T10:11:00.007Z,3.65
2018-12-01T10:13:32.068Z,5.33
2018-12-01T10:16:05.661Z,6.17
2018-12-01T10:18:41.572Z,6.40
2018-12-01T10:21:14.988Z,4.58
2018-12-01T10:23:48.704Z,4.65
2018-12-01T10:26:22.445Z,6.05
2018-12-01T10:28:55.998Z,3.62
2018-12-01T10:31:29.540Z,3.30
2018-12-01T10:34:03.312Z,5.17
2018-12-01T10:36:36.725Z,4.08
2018-12-01T10:39:13.565Z,3.42
2018-12-01T10:41:47.303Z,5.40
2018-12-01T10:44:21.067Z,4.37
2018-12-01T10:46:54.482Z,17.12
2018-12-01T10:49:27.869Z,7.35
2018-12-01T10:54:33.734Z,12.10
2018-12-01T10:57:07.539Z,12.33
2018-12-01T10:59:41.019Z,14.65
2018-12-01T11:02:32.415Z,10.43
2018-12-01T11:05:05.950Z,13.45
2018-12-01T11:07:39.508Z,10.32
2018-12-01T11:10:13.738Z,16.55
2018-12-01T11:12:47.323Z,12.98
2018-12-01T11:15:21.274Z,19.40
2018-12-01T11:18:15.379Z,12.28
2018-12-01T11:20:48.687Z,8.53
2018-12-01T11:23:22.530Z,15.90
2018-12-01T11:25:56.015Z,16.35
2018-12-01T11:28:29.926Z,15.05
2018-12-01T11:31:03.601Z,9.30
2018-12-01T11:33:37.306Z,13.48
2018-12-01T11:36:11.681Z,15.95
2018-12-01T11:38:45.265Z,15.45
2018-12-01T11:41:19.097Z,11.95
2018-12-01T11:43:52.498Z,13.32
2018-12-01T11:46:26.391Z,9.70
2018-12-01T11:48:59.887Z,13.38
2018-12-01T11:54:05.513Z,11.73
2018-12-01T11:56:39.657Z,8.60
2018-12-01T11:59:13.540Z,11.25
2018-12-01T12:01:47.308Z,12.95
2018-12-01T12:04:20.686Z,8.25
2018-12-01T12:06:55.515Z,15.32
2018-12-01T12:09:28.902Z,10.98
2018-12-01T12:12:02.514Z,12.03
2018-12-01T12:14:36.314Z,10.05
2018-12-01T12:17:10.498Z,17.30
2018-12-01T12:19:44.805Z,10.78
2018-12-01T12:24:51.316Z,8.88
2018-12-01T12:27:24.820Z,8.38
2018-12-01T12:32:32.311Z,10.28
2018-12-01T12:35:05.718Z,10.10
2018-12-01T12:37:39.506Z,10.40
2018-12-01T12:41:51.358Z,9.77
2018-12-01T12:44:25.494Z,7.87
2018-12-01T12:46:59.431Z,11.78
2018-12-01T12:49:33.038Z,10.25
2018-12-01T12:52:06.815Z,9.68
2018-12-01T12:54:40.314Z,8.23
2018-12-01T12:57:14.403Z,12.18
2018-12-01T12:59:48.665Z,8.15
2018-12-01T13:02:22.269Z,18.82
2018-12-01T13:04:56.299Z,12.85
2018-12-01T13:07:29.699Z,9.48
2018-12-01T13:10:03.278Z,12.75
2018-12-01T13:12:36.729Z,12.90
2018-12-01T13:15:16.314Z,9.70
2018-12-01T13:17:50.405Z,7.87
2018-12-01T13:20:28.306Z,9.33
2018-12-01T13:23:05.766Z,10.13
2018-12-01T13:25:39.281Z,9.00
2018-12-01T13:28:24.260Z,7.55
2018-12-01T13:31:02.774Z,10.98
2018-12-01T13:36:10.031Z,9.03
2018-12-01T13:38:44.096Z,8.90
2018-12-01T13:41:17.514Z,7.53
2018-12-01T13:43:51.403Z,8.53
2018-12-01T13:46:24.981Z,11.22
2018-12-01T13:48:58.818Z,8.33
2018-12-01T13:54:11.306Z,9.83
2018-12-01T13:56:44.704Z,10.40
2018-12-01T13:59:18.344Z,6.17
2018-12-01T14:01:53.127Z,8.40
2018-12-01T14:04:26.816Z,6.67
2018-12-01T14:09:32.740Z,17.10
2018-12-01T14:12:09.063Z,14.50
2018-12-01T14:14:42.777Z,17.60
2018-12-01T14:17:16.515Z,14.80
2018-12-01T14:19:49.907Z,11.57
2018-12-01T14:27:38.091Z,11.43
2018-12-01T14:30:19.514Z,12.50
2018-12-01T14:32:52.660Z,12.23
2018-12-01T14:35:37.645Z,11.90
2018-12-01T14:38:19.301Z,9.15
2018-12-01T14:40:54.290Z,10.13
2018-12-01T14:43:27.708Z,11.25
2018-12-01T14:46:01.313Z,12.35
2018-12-01T14:48:35.305Z,10.82
2018-12-01T14:51:09.346Z,10.93
2018-12-01T14:53:42.566Z,9.85
2018-12-01T14:56:15.989Z,9.35
2018-12-01T14:58:49.538Z,8.60
2018-12-01T15:01:23.388Z,9.85
2018-12-01T15:03:56.907Z,9.33
2018-12-01T15:09:02.721Z,6.78
2018-12-01T15:11:36.682Z,9.95
2018-12-01T15:14:10.396Z,10.00
2018-12-01T15:16:43.895Z,9.38
2018-12-01T15:21:50.554Z,6.25
2018-12-01T15:24:24.007Z,9.83
2018-12-01T15:26:57.302Z,6.58
2018-12-01T15:29:31.307Z,10.72
2018-12-01T15:32:04.764Z,7.40
2018-12-01T15:34:38.306Z,11.43
2018-12-01T15:37:11.727Z,7.70
2018-12-01T15:39:45.225Z,9.20
2018-12-01T15:42:18.648Z,8.63
2018-12-01T15:44:52.460Z,14.07
2018-12-01T15:47:26.006Z,9.18
2018-12-01T15:49:59.476Z,7.83
2018-12-01T15:52:33.294Z,8.13
2018-12-01T15:56:07.356Z,12.60
2018-12-01T15:58:40.878Z,5.97
2018-12-01T16:03:47.258Z,4.97
2018-12-01T16:06:21.303Z,7.92
2018-12-01T16:08:55.338Z,6.97
2018-12-01T16:11:29.059Z,8.30
2018-12-01T16:14:02.758Z,8.50
2018-12-01T16:16:36.348Z,6.33
2018-12-01T16:19:10.535Z,4.95
2018-12-01T16:21:43.971Z,8.03
2018-12-01T16:24:17.753Z,5.10
2018-12-01T16:29:23.691Z,8.95
2018-12-01T16:31:57.305Z,5.62
2018-12-01T16:34:30.722Z,8.50
2018-12-01T16:37:04.360Z,7.40
2018-12-01T16:39:37.984Z,4.75
2018-12-01T16:42:12.539Z,9.30
2018-12-01T16:44:46.595Z,8.08
2018-12-01T16:47:20.264Z,5.33
2018-12-01T16:49:53.696Z,6.12
2018-12-01T16:52:27.352Z,6.15
2018-12-01T16:55:00.895Z,5.67
2018-12-01T16:57:34.564Z,6.58
2018-12-01T17:00:13.063Z,4.08
2018-12-01T17:02:51.278Z,4.35
2018-12-01T17:05:27.001Z,5.55
2018-12-01T17:08:00.602Z,5.28
2018-12-01T17:10:35.063Z,8.75
2018-12-01T17:13:10.019Z,4.55
2018-12-01T17:15:43.704Z,7.03
2018-12-01T17:18:17.380Z,5.97
2018-12-01T17:20:51.120Z,6.37
2018-12-01T17:23:24.734Z,6.58
2018-12-01T17:25:57.319Z,6.97
2018-12-01T17:28:30.332Z,5.10
2018-12-01T17:31:04.281Z,4.20
2018-12-01T17:33:38.090Z,5.37
2018-12-01T17:36:11.661Z,5.22
2018-12-01T17:38:45.300Z,7.22
2018-12-01T17:41:27.405Z,6.28
2018-12-01T17:44:11.308Z,5.70
2018-12-01T17:46:44.720Z,8.85
2018-12-01T17:49:18.298Z,7.42
2018-12-01T17:51:52.345Z,4.65
2018-12-01T17:54:25.939Z,6.47
2018-12-01T17:56:59.531Z,8.15
2018-12-01T17:59:33.307Z,4.83
2018-12-01T18:02:07.062Z,6.05
2018-12-01T18:04:41.303Z,4.87
2018-12-01T18:07:14.726Z,5.55
2018-12-01T18:09:48.541Z,8.33
2018-12-01T18:15:03.268Z,2.67
2018-12-01T18:17:36.735Z,5.58
2018-12-01T18:20:27.894Z,5.90
2018-12-01T18:25:43.890Z,5.42
2018-12-01T18:30:52.963Z,3.47
2018-12-01T18:33:42.551Z,6.00
2018-12-01T18:36:18.052Z,7.45
2018-12-01T18:38:53.826Z,7.22
2018-12-01T18:41:27.293Z,3.95
2018-12-01T18:44:01.314Z,5.95
2018-12-01T18:46:34.664Z,6.37
2018-12-01T18:49:08.786Z,4.25
2018-12-01T18:51:40.646Z,4.95
2018-12-01T18:54:12.471Z,6.10
2018-12-01T18:56:46.009Z,5.30
2018-12-01T18:59:19.541Z,5.05
2018-12-01T19:01:56.073Z,4.50
2018-12-01T19:04:29.506Z,3.80
2018-12-01T19:07:02.998Z,4.50
2018-12-01T19:09:36.522Z,3.90
2018-12-01T19:12:10.284Z,4.85
2018-12-01T19:14:44.303Z,5.87
2018-12-01T19:17:17.778Z,6.92
2018-12-01T19:19:50.543Z,4.58
2018-12-01T19:22:23.623Z,4.92
2018-12-01T19:24:57.027Z,4.53
2018-12-01T19:27:30.579Z,3.75
2018-12-01T19:30:05.332Z,3.47
2018-12-01T19:32:38.379Z,4.87
2018-12-01T19:35:30.572Z,3.60
2018-12-01T19:38:04.012Z,5.62
2018-12-01T19:40:38.791Z,6.92
2018-12-01T19:43:12.351Z,3.20
2018-12-01T19:45:46.011Z,6.00
2018-12-01T19:48:19.583Z,3.10
2018-12-01T19:50:53.506Z,6.40
2018-12-01T19:53:27.010Z,3.25
2018-12-01T19:56:00.522Z,4.47
2018-12-01T19:58:31.390Z,4.50
2018-12-01T20:01:05.116Z,4.12
2018-12-01T20:03:38.725Z,3.50
2018-12-01T20:06:12.687Z,3.72
2018-12-01T20:08:46.819Z,3.50
2018-12-01T20:13:47.382Z,3.10
2018-12-01T20:16:53.512Z,2.80
2018-12-01T20:19:27.267Z,2.80
2018-12-01T20:22:01.069Z,3.33
2018-12-01T20:24:34.518Z,4.58
2018-12-01T20:27:08.451Z,3.25
2018-12-01T20:29:42.323Z,3.47
2018-12-01T20:32:15.915Z,3.55
2018-12-01T20:37:22.684Z,4.85
2018-12-01T20:39:55.418Z,2.92
2018-12-01T20:42:29.400Z,3.70
2018-12-01T20:45:02.860Z,4.95
2018-12-01T20:50:16.784Z,2.33
2018-12-01T20:52:51.351Z,3.00
2018-12-01T20:55:31.399Z,5.60
2018-12-01T20:58:08.825Z,2.60
2018-12-01T21:03:15.464Z,3.23
2018-12-01T21:05:49.382Z,3.55
2018-12-01T21:08:27.677Z,3.37
2018-12-01T21:11:01.776Z,4.78
2018-12-01T21:13:35.338Z,4.08
2018-12-01T21:16:09.773Z,5.33
2018-12-01T21:18:42.935Z,3.17
2018-12-01T21:21:16.550Z,3.12
2018-12-01T21:23:49.868Z,5.62
2018-12-01T21:26:23.287Z,3.60
2018-12-01T21:28:57.321Z,3.25
2018-12-01T21:31:31.010Z,5.17
2018-12-01T21:34:04.546Z,3.40
2018-12-01T21:36:38.036Z,2.60
2018-12-01T21:39:13.335Z,3.00
2018-12-01T21:41:47.389Z,3.17
2018-12-01T21:44:20.911Z,2.98
2018-12-01T21:49:26.701Z,2.87
2018-12-01T21:52:00.368Z,2.85
2018-12-01T21:54:33.720Z,3.47
2018-12-01T21:57:09.667Z,2.47
2018-12-01T21:59:43.277Z,2.80
2018-12-01T22:02:19.330Z,3.05
2018-12-01T22:04:52.692Z,2.33
2018-12-01T22:07:26.319Z,4.30
2018-12-01T22:09:59.735Z,1.98
2018-12-01T22:12:33.366Z,3.27
2018-12-01T22:15:07.525Z,2.17
2018-12-01T22:17:41.347Z,2.25
2018-12-01T22:20:24.793Z,2.33
2018-12-01T22:22:57.770Z,3.15
2018-12-01T22:25:31.388Z,2.77
2018-12-01T22:28:05.004Z,2.40
2018-12-01T22:30:43.477Z,5.58
2018-12-01T22:33:25.890Z,4.78
2018-12-01T22:36:01.334Z,3.70
2018-12-01T22:38:34.688Z,2.67
2018-12-01T22:41:08.859Z,2.65
2018-12-01T22:46:15.492Z,2.85
2018-12-01T22:48:49.008Z,2.30
2018-12-01T22:51:22.781Z,2.33
2018-12-01T22:53:55.518Z,2.77
2018-12-01T22:56:28.975Z,2.08
2018-12-01T22:59:02.670Z,2.20
2018-12-01T23:01:36.318Z,1.98
2018-12-01T23:04:10.335Z,2.40
2018-12-01T23:06:44.066Z,2.75
2018-12-01T23:09:17.547Z,2.60
2018-12-01T23:11:50.996Z,3.00
2018-12-01T23:14:24.505Z,2.60
2018-12-01T23:16:58.312Z,2.92
2018-12-01T23:19:32.384Z,2.45
2018-12-01T23:22:06.113Z,2.40
2018-12-01T23:24:39.489Z,4.00
2018-12-01T23:27:12.856Z,2.60
2018-12-01T23:32:18.742Z,2.22
2018-12-01T23:34:53.322Z,2.90
2018-12-01T23:37:26.716Z,3.05
2018-12-01T23:40:00.459Z,3.33
2018-12-01T23:42:34.519Z,2.22
2018-12-01T23:45:19.391Z,3.27
2018-12-01T23:47:53.463Z,2.42
2018-12-01T23:50:31.058Z,3.67
2018-12-01T23:53:16.539Z,2.35
2018-12-01T23:55:49.895Z,1.98
